createdAt,value
2022-09-03T00:02:35.056Z,99578.28
2022-09-03T00:05:10.709Z,99575.13
2022-09-03T00:08:13.976Z,99578.29
2022-09-03T00:11:16.556Z,99575.83
2022-09-03T00:13:55.931Z,99574.77
2022-09-03T00:16:30.825Z,99570.34
2022-09-03T00:19:04.322Z,99571.02
2022-09-03T00:21:40.383Z,99568.02
2022-09-03T00:24:15.120Z,99567.48
2022-09-03T00:26:47.686Z,99568.17
2022-09-03T00:29:20.291Z,99565.91
2022-09-03T00:31:57.167Z,99565.05
2022-09-03T00:34:29.616Z,99571.63
2022-09-03T00:36:58.265Z,99575.19
2022-09-03T00:39:28.353Z,99580.33
2022-09-03T00:41:59.872Z,99578.44
2022-09-03T00:44:30.912Z,99579.00
2022-09-03T00:47:13.934Z,99579.26
2022-09-03T00:50:04.739Z,99579.00
2022-09-03T00:52:46.635Z,99576.99
2022-09-03T00:55:47.581Z,99587.76
2022-09-03T00:58:18.535Z,99584.16
2022-09-03T01:00:46.997Z,99583.35
2022-09-03T01:03:40.216Z,99588.30
2022-09-03T01:06:21.745Z,99584.68
2022-09-03T01:09:12.243Z,99589.64
2022-09-03T01:12:06.323Z,99589.20
2022-09-03T01:15:21.300Z,99589.86
2022-09-03T01:18:34.217Z,99593.88
2022-09-03T01:21:27.273Z,99589.57
2022-09-03T01:24:13.778Z,99585.77
2022-09-03T01:27:15.541Z,99587.05
2022-09-03T01:29:46.682Z,99588.36
2022-09-03T01:32:36.667Z,99588.58
2022-09-03T01:35:25.939Z,99586.13
2022-09-03T01:38:31.692Z,99584.58
2022-09-03T01:41:33.862Z,99584.81
2022-09-03T01:44:39.649Z,99583.85
2022-09-03T01:47:41.787Z,99585.29
2022-09-03T01:50:09.858Z,99582.73
2022-09-03T01:52:59.981Z,99579.41
2022-09-03T01:55:44.225Z,99578.39
2022-09-03T01:58:21.401Z,99572.80
2022-09-03T02:01:02.355Z,99570.73
2022-09-03T02:03:41.065Z,99568.27
2022-09-03T02:06:11.711Z,99568.12
2022-09-03T02:08:40.419Z,99570.44
2022-09-03T02:11:10.584Z,99575.43
2022-09-03T02:13:44.423Z,99578.98
2022-09-03T02:16:20.670Z,99580.14
2022-09-03T02:18:55.130Z,99578.27
2022-09-03T02:21:25.461Z,99574.64
2022-09-03T02:23:54.044Z,99576.23
2022-09-03T02:26:25.207Z,99572.77
2022-09-03T02:28:54.995Z,99575.90
2022-09-03T02:31:23.382Z,99572.05
2022-09-03T02:33:52.259Z,99574.52
2022-09-03T02:36:27.677Z,99573.66
2022-09-03T02:38:55.959Z,99575.25
2022-09-03T02:41:27.617Z,99578.11
2022-09-03T02:44:03.776Z,99577.47
2022-09-03T02:46:59.394Z,99579.23
2022-09-03T02:49:28.813Z,99585.90
2022-09-03T02:52:06.082Z,99586.98
2022-09-03T02:54:36.817Z,99587.89
2022-09-03T02:57:04.994Z,99585.33
2022-09-03T02:59:33.369Z,99584.12
2022-09-03T03:02:02.134Z,99582.42
2022-09-03T03:04:31.362Z,99585.48
2022-09-03T03:06:59.678Z,99580.98
2022-09-03T03:09:28.141Z,99586.46
2022-09-03T03:11:56.500Z,99581.84
2022-09-03T03:14:24.870Z,99579.14
2022-09-03T03:16:52.950Z,99578.09
2022-09-03T03:19:21.217Z,99583.36
2022-09-03T03:21:49.392Z,99584.78
2022-09-03T03:24:17.565Z,99586.23
2022-09-03T03:26:46.251Z,99589.61
2022-09-03T03:29:20.979Z,99587.56
2022-09-03T03:31:49.016Z,99583.76
2022-09-03T03:34:17.297Z,99589.77
2022-09-03T03:36:45.356Z,99589.30
2022-09-03T03:39:13.879Z,99589.85
2022-09-03T03:41:42.057Z,99588.13
2022-09-03T03:44:10.099Z,99586.91
2022-09-03T03:46:40.755Z,99589.74
2022-09-03T03:49:11.388Z,99592.88
2022-09-03T03:51:40.995Z,99595.52
2022-09-03T03:54:09.232Z,99597.42
2022-09-03T03:56:37.444Z,99598.67
2022-09-03T03:59:05.618Z,99601.03
2022-09-03T04:01:33.957Z,99601.10
2022-09-03T04:04:02.723Z,99608.66
2022-09-03T04:06:30.960Z,99605.70
2022-09-03T04:08:59.133Z,99608.02
2022-09-03T04:11:27.250Z,99607.84
2022-09-03T04:13:55.481Z,99605.40
2022-09-03T04:16:26.470Z,99605.54
2022-09-03T04:18:56.336Z,99607.08
2022-09-03T04:21:27.877Z,99606.04
2022-09-03T04:23:58.315Z,99608.65
2022-09-03T04:26:31.879Z,99610.92
2022-09-03T04:29:03.559Z,99613.38
2022-09-03T04:31:32.430Z,99611.83
2022-09-03T04:34:00.840Z,99607.98
2022-09-03T04:36:31.268Z,99606.56
2022-09-03T04:39:01.922Z,99606.36
2022-09-03T04:41:31.829Z,99607.05
2022-09-03T04:44:00.577Z,99604.38
2022-09-03T04:46:35.635Z,99603.65
2022-09-03T04:49:04.115Z,99601.89
2022-09-03T04:51:33.463Z,99601.52
2022-09-03T04:54:02.572Z,99600.42
2022-09-03T04:56:34.169Z,99604.75
2022-09-03T04:59:08.313Z,99604.72
2022-09-03T05:01:38.896Z,99602.95
2022-09-03T05:04:08.426Z,99603.76
2022-09-03T05:06:37.819Z,99604.58
2022-09-03T05:09:07.024Z,99603.52
2022-09-03T05:11:35.345Z,99608.38
2022-09-03T05:14:06.011Z,99612.73
2022-09-03T05:16:34.295Z,99614.08
2022-09-03T05:19:03.921Z,99615.27
2022-09-03T05:21:32.621Z,99618.75
2022-09-03T05:24:02.101Z,99615.75
2022-09-03T05:26:32.732Z,99618.70
2022-09-03T05:29:02.956Z,99623.75
2022-09-03T05:31:32.304Z,99625.10
2022-09-03T05:34:03.708Z,99628.93
2022-09-03T05:36:35.873Z,99625.56
2022-09-03T05:39:06.198Z,99627.30
2022-09-03T05:41:34.988Z,99628.49
2022-09-03T05:44:04.314Z,99631.44
2022-09-03T05:46:37.683Z,99633.66
2022-09-03T05:49:07.643Z,99639.23
2022-09-03T05:51:37.328Z,99639.73
2022-09-03T05:54:06.129Z,99637.80
2022-09-03T05:56:36.034Z,99635.50
2022-09-03T05:59:09.508Z,99636.16
2022-09-03T06:01:40.913Z,99635.58
2022-09-03T06:04:15.584Z,99634.49
2022-09-03T06:06:45.601Z,99635.33
2022-09-03T06:09:18.389Z,99628.95
2022-09-03T06:11:47.829Z,99631.19
2022-09-03T06:14:18.527Z,99629.55
2022-09-03T06:16:53.253Z,99631.79
2022-09-03T06:19:21.632Z,99626.45
2022-09-03T06:21:49.803Z,99624.80
2022-09-03T06:24:26.278Z,99626.80
2022-09-03T06:26:57.774Z,99626.75
2022-09-03T06:29:26.406Z,99631.05
2022-09-03T06:31:55.325Z,99630.29
2022-09-03T06:34:27.053Z,99632.52
2022-09-03T06:36:55.228Z,99629.73
2022-09-03T06:39:27.384Z,99629.11
2022-09-03T06:41:55.672Z,99632.36
2022-09-03T06:44:28.452Z,99633.83
2022-09-03T06:46:56.835Z,99629.69
2022-09-03T06:49:26.647Z,99635.02
2022-09-03T06:51:54.922Z,99637.92
2022-09-03T06:54:25.407Z,99647.28
2022-09-03T06:56:53.623Z,99651.81
2022-09-03T06:59:21.899Z,99653.36
2022-09-03T07:01:50.179Z,99650.67
2022-09-03T07:04:19.225Z,99650.98
2022-09-03T07:06:48.500Z,99649.56
2022-09-03T07:09:18.596Z,99647.76
2022-09-03T07:11:48.642Z,99646.43
2022-09-03T07:14:21.256Z,99643.20
2022-09-03T07:16:50.520Z,99642.95
2022-09-03T07:19:18.954Z,99640.39
2022-09-03T07:21:50.216Z,99641.54
2022-09-03T07:24:22.720Z,99640.94
2022-09-03T07:26:51.065Z,99642.10
2022-09-03T07:29:21.081Z,99639.48
2022-09-03T07:31:53.703Z,99642.70
2022-09-03T07:34:25.566Z,99647.83
2022-09-03T07:36:55.429Z,99651.66
2022-09-03T07:39:23.819Z,99653.45
2022-09-03T07:41:52.298Z,99653.72
2022-09-03T07:44:20.925Z,99658.41
2022-09-03T07:46:51.839Z,99657.59
2022-09-03T07:49:22.230Z,99660.14
2022-09-03T07:51:53.282Z,99662.85
2022-09-03T07:54:22.481Z,99662.94
2022-09-03T07:56:50.754Z,99661.30
2022-09-03T07:59:19.647Z,99662.48
2022-09-03T08:01:47.820Z,99664.14
2022-09-03T08:04:16.050Z,99670.02
2022-09-03T08:06:44.270Z,99679.23
2022-09-03T08:09:14.184Z,99681.80
2022-09-03T08:11:43.866Z,99680.48
2022-09-03T08:14:14.425Z,99681.43
2022-09-03T08:16:50.277Z,99678.71
2022-09-03T08:19:19.477Z,99676.31
2022-09-03T08:21:47.649Z,99674.13
2022-09-03T08:24:17.973Z,99675.75
2022-09-03T08:26:51.387Z,99677.93
2022-09-03T08:29:21.615Z,99679.45
2022-09-03T08:31:50.251Z,99678.02
2022-09-03T08:34:19.171Z,99676.77
2022-09-03T08:36:47.719Z,99676.59
2022-09-03T08:39:16.508Z,99679.02
2022-09-03T08:41:53.826Z,99682.71
2022-09-03T08:44:36.952Z,99683.08
2022-09-03T08:48:00.729Z,99677.60
2022-09-03T08:50:35.661Z,99669.63
2022-09-03T08:53:13.870Z,99666.29
2022-09-03T08:55:51.772Z,99669.09
2022-09-03T08:58:22.532Z,99668.72
2022-09-03T09:01:01.739Z,99672.42
2022-09-03T09:03:56.333Z,99678.40
2022-09-03T09:06:36.795Z,99674.35
2022-09-03T09:09:23.196Z,99671.66
2022-09-03T09:12:10.009Z,99667.21
2022-09-03T09:14:55.535Z,99671.00
2022-09-03T09:17:36.050Z,99673.85
2022-09-03T09:20:25.113Z,99671.19
2022-09-03T09:23:07.529Z,99674.10
2022-09-03T09:25:49.314Z,99673.08
2022-09-03T09:28:21.735Z,99668.56
2022-09-03T09:30:54.621Z,99671.30
2022-09-03T09:33:25.514Z,99674.64
2022-09-03T09:35:54.194Z,99671.52
2022-09-03T09:38:31.531Z,99671.80
2022-09-03T09:41:15.671Z,99672.14
2022-09-03T09:43:45.631Z,99668.54
2022-09-03T09:46:26.062Z,99671.79
2022-09-03T09:48:57.970Z,99675.77
2022-09-03T09:51:31.530Z,99683.39
2022-09-03T09:54:14.597Z,99679.98
2022-09-03T09:56:44.824Z,99672.13
2022-09-03T09:59:15.549Z,99676.39
2022-09-03T10:01:45.576Z,99675.42
2022-09-03T10:04:23.799Z,99676.08
2022-09-03T10:06:59.527Z,99678.02
2022-09-03T10:09:31.364Z,99677.23
2022-09-03T10:12:37.069Z,99680.48
2022-09-03T10:15:31.595Z,99685.02
2022-09-03T10:18:07.179Z,99686.45
2022-09-03T10:21:17.776Z,99687.76
2022-09-03T10:24:01.645Z,99686.52
2022-09-03T10:26:33.346Z,99683.20
2022-09-03T10:29:06.129Z,99680.05
2022-09-03T10:31:34.741Z,99676.03
2022-09-03T10:34:24.800Z,99675.40
2022-09-03T10:37:18.611Z,99677.98
2022-09-03T10:40:01.944Z,99677.91
2022-09-03T10:42:40.443Z,99678.99
2022-09-03T10:45:33.442Z,99675.80
2022-09-03T10:48:12.328Z,99679.12
2022-09-03T10:51:34.335Z,99682.83
2022-09-03T10:54:32.410Z,99676.88
2022-09-03T10:57:32.430Z,99675.86
2022-09-03T11:00:11.077Z,99672.17
2022-09-03T11:03:01.121Z,99671.77
2022-09-03T11:05:38.732Z,99664.22
2022-09-03T11:08:22.739Z,99662.11
2022-09-03T11:11:12.558Z,99652.77
2022-09-03T11:14:00.393Z,99660.45
2022-09-03T11:16:59.390Z,99660.04
2022-09-03T11:19:38.321Z,99660.77
2022-09-03T11:22:08.847Z,99656.55
2022-09-03T11:24:40.725Z,99657.45
2022-09-03T11:27:33.148Z,99657.47
2022-09-03T11:30:08.519Z,99656.10
2022-09-03T11:32:55.722Z,99654.16
2022-09-03T11:35:29.005Z,99656.86
2022-09-03T11:38:06.086Z,99654.23
2022-09-03T11:40:57.812Z,99652.90
2022-09-03T11:43:26.497Z,99650.61
2022-09-03T11:46:28.171Z,99650.37
2022-09-03T11:49:09.746Z,99645.77
2022-09-03T11:51:42.149Z,99646.27
2022-09-03T11:54:16.334Z,99644.49
2022-09-03T11:56:44.917Z,99646.41
2022-09-03T11:59:13.650Z,99648.70
2022-09-03T12:01:53.372Z,99644.83
2022-09-03T12:04:31.658Z,99637.88
2022-09-03T12:07:44.786Z,99640.01
2022-09-03T12:10:27.912Z,99639.00
2022-09-03T12:13:38.581Z,99641.48
2022-09-03T12:16:07.841Z,99640.19
2022-09-03T12:18:38.001Z,99644.77
2022-09-03T12:21:09.265Z,99642.87
2022-09-03T12:23:51.048Z,99640.40
2022-09-03T12:26:27.757Z,99635.48
2022-09-03T12:28:58.785Z,99632.31
2022-09-03T12:31:30.335Z,99631.41
2022-09-03T12:34:19.268Z,99620.13
2022-09-03T12:36:53.996Z,99616.09
2022-09-03T12:42:26.285Z,99615.80
2022-09-03T12:44:55.279Z,99613.83
2022-09-03T12:47:40.373Z,99616.95
2022-09-03T12:50:16.633Z,99613.73
2022-09-03T12:53:03.451Z,99619.29
2022-09-03T12:55:54.228Z,99623.37
2022-09-03T12:58:33.362Z,99623.62
2022-09-03T13:01:14.880Z,99622.90
2022-09-03T13:03:58.175Z,99616.96
2022-09-03T13:06:41.656Z,99619.61
2022-09-03T13:09:10.665Z,99617.47
2022-09-03T13:11:39.491Z,99613.63
2022-09-03T13:14:11.555Z,99608.27
2022-09-03T13:16:45.800Z,99610.27
2022-09-03T13:19:36.270Z,99610.87
2022-09-03T13:22:19.392Z,99610.58
2022-09-03T13:25:08.763Z,99605.99
2022-09-03T13:28:08.170Z,99604.66
2022-09-03T13:30:55.242Z,99602.48
2022-09-03T13:33:38.410Z,99605.99
2022-09-03T13:36:32.106Z,99602.94
2022-09-03T13:39:06.605Z,99608.70
2022-09-03T13:41:50.371Z,99606.84
2022-09-03T13:44:24.993Z,99604.81
2022-09-03T13:47:00.618Z,99606.70
2022-09-03T13:50:02.997Z,99603.84
2022-09-03T13:52:57.075Z,99604.30
2022-09-03T13:55:44.137Z,99605.10
2022-09-03T13:58:31.632Z,99603.77
2022-09-03T14:00:59.764Z,99600.88
2022-09-03T14:04:01.450Z,99599.02
2022-09-03T14:06:45.297Z,99600.85
2022-09-03T14:09:35.176Z,99601.30
2022-09-03T14:12:14.079Z,99600.67
2022-09-03T14:14:57.154Z,99604.61
2022-09-03T14:17:49.668Z,99605.17
2022-09-03T14:20:46.923Z,99602.23
2022-09-03T14:23:36.192Z,99610.56
2022-09-03T14:26:07.368Z,99605.34
2022-09-03T14:28:38.580Z,99604.85
2022-09-03T14:31:35.952Z,99604.84
2022-09-03T14:34:07.082Z,99605.55
2022-09-03T14:36:42.936Z,99607.48
2022-09-03T14:39:26.852Z,99607.08
2022-09-03T14:42:38.827Z,99605.64
2022-09-03T14:45:20.163Z,99606.13
2022-09-03T14:48:16.189Z,99599.30
2022-09-03T14:51:13.683Z,99601.43
2022-09-03T14:53:50.838Z,99603.95
2022-09-03T14:56:58.844Z,99598.19
2022-09-03T14:59:48.930Z,99595.65
2022-09-03T15:02:30.284Z,99597.33
2022-09-03T15:05:28.291Z,99599.84
2022-09-03T15:08:01.784Z,99603.12
2022-09-03T15:10:46.679Z,99607.70
2022-09-03T15:13:42.985Z,99609.84
2022-09-03T15:16:29.451Z,99616.03
2022-09-03T15:19:23.672Z,99618.14
2022-09-03T15:21:51.744Z,99618.34
2022-09-03T15:24:43.674Z,99616.39
2022-09-03T15:27:17.684Z,99618.16
2022-09-03T15:29:51.700Z,99617.80
2022-09-03T15:32:55.307Z,99613.71
2022-09-03T15:35:38.629Z,99614.58
2022-09-03T15:38:44.179Z,99612.02
2022-09-03T15:41:46.350Z,99605.38
2022-09-03T15:44:19.519Z,99606.09
2022-09-03T15:46:54.584Z,99599.27
2022-09-03T15:50:00.433Z,99599.73
2022-09-03T15:52:46.016Z,99603.07
2022-09-03T15:55:26.477Z,99601.05
2022-09-03T15:58:08.892Z,99607.27
2022-09-03T16:00:55.168Z,99609.25
2022-09-03T16:03:33.547Z,99606.99
2022-09-03T16:06:06.615Z,99606.33
2022-09-03T16:08:44.281Z,99608.30
2022-09-03T16:11:27.609Z,99606.20
2022-09-03T16:14:09.864Z,99609.40
2022-09-03T16:16:42.647Z,99608.35
2022-09-03T16:19:22.382Z,99609.10
2022-09-03T16:22:13.657Z,99608.27
2022-09-03T16:25:01.696Z,99609.34
2022-09-03T16:27:40.827Z,99612.77
2022-09-03T16:30:12.104Z,99613.05
2022-09-03T16:32:55.610Z,99614.17
2022-09-03T16:35:58.495Z,99611.05
2022-09-03T16:39:00.064Z,99612.18
2022-09-03T16:41:45.428Z,99612.05
2022-09-03T16:44:25.410Z,99606.27
2022-09-03T16:47:15.672Z,99603.34
2022-09-03T16:50:05.963Z,99600.20
2022-09-03T16:53:06.828Z,99597.66
2022-09-03T16:56:10.510Z,99602.46
2022-09-03T16:58:53.224Z,99599.27
2022-09-03T17:01:30.266Z,99600.92
2022-09-03T17:04:27.562Z,99603.92
2022-09-03T17:07:26.558Z,99604.89
2022-09-03T17:10:00.467Z,99605.01
2022-09-03T17:12:31.610Z,99607.73
2022-09-03T17:15:08.591Z,99607.46
2022-09-03T17:18:07.587Z,99606.83
2022-09-03T17:21:10.017Z,99607.43
2022-09-03T17:23:49.400Z,99608.95
2022-09-03T17:26:20.239Z,99610.68
2022-09-03T17:29:11.758Z,99613.46
2022-09-03T17:32:12.189Z,99617.27
2022-09-03T17:35:12.637Z,99618.48
2022-09-03T17:37:40.690Z,99617.95
2022-09-03T17:40:53.861Z,99624.02
2022-09-03T17:43:34.691Z,99627.52
2022-09-03T17:46:22.767Z,99635.73
2022-09-03T17:48:53.770Z,99638.31
2022-09-03T17:51:27.938Z,99640.08
2022-09-03T17:54:00.357Z,99644.99
2022-09-03T17:56:35.904Z,99651.11
2022-09-03T17:59:31.623Z,99654.70
2022-09-03T18:02:15.470Z,99659.02
2022-09-03T18:05:28.084Z,99656.18
2022-09-03T18:08:20.525Z,99659.15
2022-09-03T18:11:02.112Z,99664.50
2022-09-03T18:13:58.885Z,99664.52
2022-09-03T18:16:30.352Z,99664.63
2022-09-03T18:19:20.085Z,99663.51
2022-09-03T18:22:08.841Z,99667.62
2022-09-03T18:25:11.525Z,99671.56
2022-09-03T18:28:18.919Z,99673.02
2022-09-03T18:31:06.176Z,99677.80
2022-09-03T18:33:53.257Z,99676.44
2022-09-03T18:36:41.092Z,99676.84
2022-09-03T18:39:44.435Z,99681.30
2022-09-03T18:42:49.836Z,99679.31
2022-09-03T18:46:14.823Z,99678.89
2022-09-03T18:48:58.393Z,99678.30
2022-09-03T18:52:04.848Z,99680.71
2022-09-03T18:55:19.970Z,99682.90
2022-09-03T18:58:15.948Z,99688.42
2022-09-03T19:01:23.948Z,99691.44
2022-09-03T19:04:55.414Z,99690.15
2022-09-03T19:08:30.353Z,99690.83
2022-09-03T19:11:41.642Z,99687.67
2022-09-03T19:14:45.344Z,99689.95
2022-09-03T19:17:59.956Z,99693.46
2022-09-03T19:20:50.507Z,99694.33
2022-09-03T19:23:37.214Z,99695.20
2022-09-03T19:26:45.733Z,99694.02
2022-09-03T19:29:57.324Z,99696.77
2022-09-03T19:33:05.024Z,99696.75
2022-09-03T19:36:04.943Z,99696.11
2022-09-03T19:39:07.012Z,99695.95
2022-09-03T19:42:04.370Z,99701.95
2022-09-03T19:45:24.155Z,99701.28
2022-09-03T19:48:11.885Z,99699.04
2022-09-03T19:51:08.734Z,99700.14
2022-09-03T19:53:55.747Z,99700.91
2022-09-03T19:56:49.214Z,99704.28
2022-09-03T19:59:39.406Z,99704.66
2022-09-03T20:02:26.149Z,99702.97
2022-09-03T20:05:18.555Z,99705.60
2022-09-03T20:08:11.101Z,99704.80
2022-09-03T20:10:42.144Z,99709.17
2022-09-03T20:13:20.248Z,99714.55
2022-09-03T20:15:51.520Z,99710.33
2022-09-03T20:18:25.529Z,99710.67
2022-09-03T20:21:32.021Z,99710.67
2022-09-03T20:24:26.159Z,99716.81
2022-09-03T20:27:03.038Z,99717.88
2022-09-03T20:29:49.337Z,99720.02
2022-09-03T20:32:40.858Z,99721.64
2022-09-03T20:35:46.561Z,99722.56
2022-09-03T20:38:43.765Z,99721.02
2022-09-03T20:41:28.734Z,99721.59
2022-09-03T20:44:25.198Z,99722.85
2022-09-03T20:47:36.456Z,99725.34
2022-09-03T20:50:43.950Z,99725.24
2022-09-03T20:53:24.004Z,99723.52
2022-09-03T20:55:57.603Z,99722.47
2022-09-03T20:58:46.155Z,99721.38
2022-09-03T21:01:31.066Z,99719.77
2022-09-03T21:04:11.175Z,99723.27
2022-09-03T21:07:03.720Z,99726.79
2022-09-03T21:09:42.955Z,99729.08
2022-09-03T21:12:29.669Z,99730.50
2022-09-03T21:15:09.817Z,99729.13
2022-09-03T21:18:19.528Z,99725.30
2022-09-03T21:21:38.736Z,99722.52
2022-09-03T21:24:34.250Z,99720.27
2022-09-03T21:27:08.977Z,99727.75
2022-09-03T21:29:39.915Z,99724.96
2022-09-03T21:32:54.171Z,99725.83
2022-09-03T21:35:33.198Z,99724.23
2022-09-03T21:38:12.945Z,99725.63
2022-09-03T21:40:52.687Z,99723.35
2022-09-03T21:43:34.174Z,99720.17
2022-09-03T21:46:09.255Z,99715.95
2022-09-03T21:49:00.935Z,99721.98
2022-09-03T21:51:41.703Z,99724.81
2022-09-03T21:54:17.762Z,99724.88
2022-09-03T21:57:20.525Z,99725.17
2022-09-03T22:00:04.902Z,99729.80
2022-09-03T22:02:41.261Z,99730.20
2022-09-03T22:05:09.404Z,99730.26
2022-09-03T22:08:09.256Z,99736.51
2022-09-03T22:10:57.194Z,99739.05
2022-09-03T22:14:02.950Z,99739.44
2022-09-03T22:17:24.986Z,99740.68
2022-09-03T22:19:53.466Z,99738.30
2022-09-03T22:22:34.359Z,99739.55
2022-09-03T22:25:09.477Z,99741.15
2022-09-03T22:27:50.243Z,99741.36
2022-09-03T22:30:23.028Z,99746.50
2022-09-03T22:33:19.360Z,99746.80
2022-09-03T22:35:56.339Z,99750.33
2022-09-03T22:38:37.316Z,99754.04
2022-09-03T22:41:14.499Z,99752.84
2022-09-03T22:43:54.858Z,99748.84
2022-09-03T22:46:27.793Z,99751.66
2022-09-03T22:48:58.886Z,99749.05
2022-09-03T22:51:37.815Z,99749.44
2022-09-03T22:54:15.305Z,99743.18
2022-09-03T22:56:44.298Z,99744.41
2022-09-03T22:59:52.306Z,99742.16
2022-09-03T23:02:24.779Z,99744.09
2022-09-03T23:05:25.727Z,99742.40
2022-09-03T23:08:14.562Z,99742.27
2022-09-03T23:11:01.391Z,99738.95
2022-09-03T23:13:42.267Z,99743.20
2022-09-03T23:16:23.478Z,99740.39
2022-09-03T23:18:53.049Z,99737.58
2022-09-03T23:21:44.672Z,99736.00
2022-09-03T23:24:35.273Z,99741.70
2022-09-03T23:27:08.976Z,99746.06
2022-09-03T23:29:46.364Z,99743.89
2022-09-03T23:32:15.288Z,99744.90
2022-09-03T23:34:43.774Z,99749.63
2022-09-03T23:37:47.239Z,99751.07
2022-09-03T23:40:28.315Z,99753.91
2022-09-03T23:43:44.618Z,99750.75
2022-09-03T23:46:40.850Z,99752.68
2022-09-03T23:49:34.659Z,99751.70
2022-09-03T23:52:21.536Z,99754.95
2022-09-03T23:55:37.001Z,99756.09
2022-09-03T23:58:11.646Z,99757.81
